• Join FlightAware (Why Join?)
  • Login
  • US Flag 
08:33PM EST


 

Airport Tracker/Info


-or-


 

Live Flight TrackerFlight Track Log ✈ UPS1337 ✈ 31-Mar-2014 ✈ KPIE - KSDF

Flight Track Log - Related Links

Times and Time Zones

All times are in EDT time to prevent confusion due to time zone crossing. See the UPS1337 flight status page for this flight to view local times or setup timezone preferences in your user account.

Time Position Orientation Groundspeed Altitude Reporting Facility
EDT Latitude Longitude Course Direction KTS MPH feet Rate Location/Type
09:39PM 27.9667 -82.6833 North 181 208 3,800  Level Tampa TRACON
09:41PM 28.0872 -82.6644 North 239 275 8,600 2,700 Climbing Jacksonville Center
09:42PM 28.1664 -82.6853 347° North 261 300 11,200 2,400 Climbing Jacksonville Center
09:43PM 28.2667 -82.7136 346° North 318 366 13,400 2,520 Climbing Jacksonville Center
09:44PM 28.3753 -82.7464 345° North 365 420 16,400 2,820 Climbing Jacksonville Center
09:45PM 28.4775 -82.7981 336° Northwest 389 448 19,100 2,520 Climbing Jacksonville Center
09:46PM 28.5861 -82.8500 337° Northwest 410 472 21,500 2,220 Climbing Jacksonville Center
09:47PM 28.6947 -82.9114 334° Northwest 422 486 23,600 1,920 Climbing Jacksonville Center
09:48PM 28.8072 -82.9756 333° Northwest 433 498 25,400 2,460 Climbing Jacksonville Center
09:49PM 28.9178 -83.0419 332° Northwest 438 504 28,500 2,520 Climbing Jacksonville Center
09:50PM 29.0264 -83.1064 333° Northwest 438 504 30,600 2,100 Climbing Jacksonville Center
09:51PM 29.1325 -83.1658 334° Northwest 433 498 32,800 1,680 Climbing Jacksonville Center
09:52PM 29.2369 -83.2306 332° Northwest 428 493 34,000 540 Climbing Jacksonville Center
09:53PM 29.3411 -83.2881 334° Northwest 423 487 34,000 -60 Level Jacksonville Center
09:54PM 29.4472 -83.3506 333° Northwest 423 487 33,900  Descending Jacksonville Center
09:55PM 29.5514 -83.4131 332° Northwest 423 487 34,000  Climbing Jacksonville Center
09:56PM 29.6578 -83.4733 334° Northwest 423 487 34,000  Level Jacksonville Center
09:57PM 29.7617 -83.5339 333° Northwest 423 487 34,000  Level Jacksonville Center
09:58PM 29.8658 -83.5967 332° Northwest 423 487 34,000  Level Jacksonville Center
09:59PM 29.9697 -83.6575 333° Northwest 423 487 34,000  Level Jacksonville Center
10:00PM 30.0758 -83.7206 333° Northwest 418 481 34,000  Level Jacksonville Center
10:01PM 30.1800 -83.7792 334° Northwest 418 481 34,000 -60 Level Jacksonville Center
10:02PM 30.2797 -83.8428 331° Northwest 412 474 33,900  Descending Jacksonville Center
10:03PM 30.3836 -83.9039 333° Northwest 412 474 34,000  Climbing Jacksonville Center
10:04PM 30.4875 -83.9678 332° Northwest 412 474 34,000  Level Jacksonville Center
10:05PM 30.5892 -84.0267 334° Northwest 412 474 34,000  Level Jacksonville Center
10:06PM 30.6931 -84.0883 333° Northwest 412 474 34,000  Level Jacksonville Center
10:07PM 30.7969 -84.1525 332° Northwest 412 474 34,000  Level Jacksonville Center
10:08PM 30.9006 -84.2169 332° Northwest 412 474 34,000  Level Jacksonville Center
10:09PM 31.0044 -84.2789 333° Northwest 412 474 34,000  Level Jacksonville Center
10:10PM 31.1081 -84.3436 332° Northwest 412 474 34,000  Level Jacksonville Center
10:12PM 31.2783 -84.4469 333° Northwest 430 495 34,000  Level Atlanta Center
10:13PM 31.3825 -84.5108 332° Northwest 425 489 34,000  Level Atlanta Center
10:14PM 31.4867 -84.5744 332° Northwest 425 489 34,000  Level Atlanta Center
10:15PM 31.5886 -84.6386 332° Northwest 420 483 34,000  Level Atlanta Center
10:16PM 31.6947 -84.7028 333° Northwest 420 483 34,000  Level Atlanta Center
10:17PM 31.7989 -84.7647 333° Northwest 420 483 34,000  Level Atlanta Center
10:18PM 31.9047 -84.8242 335° Northwest 420 483 34,000  Level Atlanta Center
10:19PM 32.0236 -84.8522 349° North 426 490 34,000  Level Atlanta Center
10:20PM 32.1425 -84.8681 354° North 426 490 34,000  Level Atlanta Center
10:21PM 32.2636 -84.8789 356° North 426 490 34,000  Level Atlanta Center
10:22PM 32.3803 -84.8922 354° North 426 490 34,000  Level Atlanta Center
10:23PM 32.5011 -84.9106 353° North 426 490 34,000  Level Atlanta Center
10:24PM 32.6222 -84.9267 354° North 426 490 34,000  Level Atlanta Center
10:25PM 32.7411 -84.9428 353° North 431 496 34,000  Level Atlanta Center
10:26PM 32.8536 -84.9686 349° North 438 504 34,000  Level Atlanta Center
10:27PM 32.9744 -84.9822 355° North 443 510 34,000  Level Atlanta Center
10:28PM 33.0975 -85.0008 353° North 443 510 34,000  Level Atlanta Center
10:32PM 33.6914 -85.0758 353° North 434 499 34,000  Level FlightAware ADS-B (KDZJ)
10:33PM 33.7957 -85.0905 353° North 441 507 34,000  Level FlightAware ADS-B (KDZJ)
10:34PM 33.8439 -85.1019 353° North 443 510 34,000  Level Atlanta Center
10:39PM 34.5564 -85.1919 353° North 441 507 34,000  Level FlightAware ADS-B (KDZJ)
10:40PM 34.5589 -85.1939 353° North 432 497 34,000  Level Atlanta Center
10:41PM 34.6822 -85.1856 North 432 497 34,000  Level Atlanta Center
10:42PM 34.8075 -85.1747 North 443 510 34,000  Level Atlanta Center
10:43PM 34.9286 -85.1661 North 443 510 34,000  Level Atlanta Center
10:44PM 35.0539 -85.1553 North 443 510 34,000  Level Atlanta Center
10:45PM 35.1792 -85.1467 North 443 510 34,000  Level Atlanta Center
10:46PM 35.3025 -85.1381 North 443 510 34,000  Level Atlanta Center
10:47PM 35.4275 -85.1297 North 443 510 34,000  Level Atlanta Center
10:49PM 35.6769 -85.1075 North 447 514 34,000  Level Indianapolis Center
10:50PM 35.8172 -85.0958 North 445 512 34,000 -240 Level Indianapolis Center
10:51PM 35.9408 -85.0858 North 444 511 33,600 -660 Descending Indianapolis Center
10:52PM 36.0558 -85.0764 North 456 525 32,700 -1,260 Descending Indianapolis Center
10:53PM 36.1858 -85.0656 North 460 529 31,100 -1,500 Descending Indianapolis Center
10:58PM 36.8763 -85.0098 North 421 484 23,300 -1,500 Descending FlightAware ADS-B
10:59PM 36.9843 -84.9667 18° North 426 490 21,800 -1,380 Descending FlightAware ADS-B
11:02PM 37.3143 -84.8428 17° North 416 479 18,000 -1,500 Descending FlightAware ADS-B
11:07PM 37.7279 -85.0531 312° West 336 387 10,000 -1,320 Descending FlightAware ADS-B
11:08PM 37.8069 -85.1625 312° West 336 387 10,000  Level FlightAware ADS-B
11:09PM 37.8640 -85.2419 313° West 293 337 10,000 -720 Level FlightAware ADS-B
11:10PM 37.9143 -85.3127 312° West 280 322 8,600 -1,500 Descending FlightAware ADS-B
11:11PM 37.9637 -85.3821 312° West 271 312 7,100 -1,140 Descending FlightAware ADS-B
11:13PM 38.0367 -85.4832 312° West 260 299 6,000 -540 Descending FlightAware ADS-B
11:14PM 38.0798 -85.5438 312° West 261 300 6,000  Level FlightAware ADS-B
11:15PM 38.1387 -85.5960 339° North 276 318 6,000  Level FlightAware ADS-B
11:16PM 38.2225 -85.6324 345° North 279 321 6,000  Level FlightAware ADS-B
11:17PM 38.2941 -85.6566 344° North 279 321 6,000 -120 Level FlightAware ADS-B
11:18PM 38.3682 -85.6832 344° North 240 276 5,800 -420 Descending FlightAware ADS-B
11:18PM 38.4085 -85.6986 343° North 275 316 5,300 -1,320 Descending FlightAware ADS-B
11:19PM 38.4307 -85.7075 343° North 243 280 4,700 -1,440 Descending FlightAware ADS-B
11:19PM 38.4564 -85.7172 345° North 244 281 4,200 -600 Descending FlightAware ADS-B
11:22PM 38.4128 -85.8043 182° South 175 201 3,000 -480 Descending FlightAware ADS-B
11:22PM 38.4037 -85.8032 169° South 173 199 3,000  Level FlightAware ADS-B
11:22PM 38.3868 -85.7993 168° South 170 196 3,000  Level FlightAware ADS-B
11:23PM 38.3708 -85.7947 166° South 170 196 3,000  Level FlightAware ADS-B
11:23PM 38.3380 -85.7829 165° South 163 188 3,000 -180 Level FlightAware ADS-B
11:24PM 38.2983 -85.7692 164° South 162 186 2,700 -360 Descending FlightAware ADS-B
11:25PM 38.2589 -85.7556 164° South 158 182 2,300 -420 Descending Indianapolis Center